sensor_id;sensor_type;location;lat;lon;timestamp;pressure;altitude;pressure_sealevel;temperature;humidity
22775;BME280;11554;51.106;3.684;2023-02-15T00:00:00;102839.7;;;-0.96;100.0
22775;BME280;11554;51.106;3.684;2023-02-15T00:05:00;102842.76;;;-0.96;100.0
22775;BME280;11554;51.106;3.684;2023-02-15T00:10:00;102828.12;;;-0.90;100.0
22775;BME280;11554;51.106;3.684;2023-02-15T00:15:00;102825.87000000001;;;-0.93;100.0
22775;BME280;11554;51.106;3.684;2023-02-15T00:20:00;102825.79000000001;;;-1.11;100.0
22775;BME280;11554;51.106;3.684;2023-02-15T00:25:00;102823.48999999999;;;-1.10;100.0
22775;BME280;11554;51.106;3.684;2023-02-15T00:30:00;102814.38;;;-0.88;100.0
22775;BME280;11554;51.106;3.684;2023-02-15T00:35:00;102811.93000000001;;;-0.94;100.0
22775;BME280;11554;51.106;3.684;2023-02-15T00:40:00;102813.15999999999;;;-1.19;100.0
22775;BME280;11554;51.106;3.684;2023-02-15T00:45:00;102806.26999999999;;;-1.24;100.0
22775;BME280;11554;51.106;3.684;2023-02-15T00:50:00;102798.17;;;-1.14;100.0
22775;BME280;11554;51.106;3.684;2023-02-15T00:55:00;102789.58;;;-0.90;100.0
22775;BME280;11554;51.106;3.684;2023-02-15T01:00:00;102782.36;;;-0.83;100.0
22775;BME280;11554;51.106;3.684;2023-02-15T01:05:00;102789.14;;;-1.14;100.0
22775;BME280;11554;51.106;3.684;2023-02-15T01:10:00;102785.21;;;-1.38;100.0
22775;BME280;11554;51.106;3.684;2023-02-15T01:15:00;102782.91999999998;;;-1.50;100.0
22775;BME280;11554;51.106;3.684;2023-02-15T01:20:00;102771.57999999999;;;-1.37;100.0
22775;BME280;11554;51.106;3.684;2023-02-15T01:25:00;102772.21999999999;;;-1.36;100.0
22775;BME280;11554;51.106;3.684;2023-02-15T01:30:00;102769.54000000001;;;-1.63;100.0
22775;BME280;11554;51.106;3.684;2023-02-15T01:35:00;102764.79;;;-1.63;100.0
22775;BME280;11554;51.106;3.684;2023-02-15T01:40:00;102757.86;;;-1.77;100.0
22775;BME280;11554;51.106;3.684;2023-02-15T01:45:01;102758.86;;;-1.82;100.0
22775;BME280;11554;51.106;3.684;2023-02-15T01:50:02;102762.46;;;-1.90;100.0
22775;BME280;11554;51.106;3.684;2023-02-15T01:55:00;102750.73999999999;;;-1.82;100.0
22775;BME280;11554;51.106;3.684;2023-02-15T02:00:00;102741.87999999999;;;-1.61;100.0
22775;BME280;11554;51.106;3.684;2023-02-15T02:05:00;102735.70999999999;;;-1.55;100.0
22775;BME280;11554;51.106;3.684;2023-02-15T02:10:00;102736.38;;;-1.84;100.0
22775;BME280;11554;51.106;3.684;2023-02-15T02:15:00;102732.08;;;-1.97;100.0
22775;BME280;11554;51.106;3.684;2023-02-15T02:25:08;102715.03;;;-2.02;100.0
22775;BME280;11554;51.106;3.684;2023-02-15T02:30:08;102711.43;;;-1.89;100.0
22775;BME280;11554;51.106;3.684;2023-02-15T02:35:01;102710.01000000001;;;-1.83;100.0
22775;BME280;11554;51.106;3.684;2023-02-15T02:40:01;102709.23;;;-2.12;100.0
22775;BME280;11554;51.106;3.684;2023-02-15T02:45:00;102713.06999999999;;;-2.25;100.0
22775;BME280;11554;51.106;3.684;2023-02-15T02:50:01;102709.56000000001;;;-2.37;100.0
22775;BME280;11554;51.106;3.684;2023-02-15T02:55:00;102703.36;;;-2.35;100.0
22775;BME280;11554;51.106;3.684;2023-02-15T03:00:00;102697.2;;;-2.30;100.0
22775;BME280;11554;51.106;3.684;2023-02-15T03:05:01;102695.2;;;-2.37;100.0
22775;BME280;11554;51.106;3.684;2023-02-15T03:10:00;102691.04999999999;;;-2.10;100.0
22775;BME280;11554;51.106;3.684;2023-02-15T03:15:01;102684.31;;;-1.74;100.0
22775;BME280;11554;51.106;3.684;2023-02-15T03:20:00;102672.02;;;-1.78;100.0
22775;BME280;11554;51.106;3.684;2023-02-15T03:25:02;102674.01;;;-1.96;100.0
22775;BME280;11554;51.106;3.684;2023-02-15T03:30:00;102669.36;;;-2.34;100.0
22775;BME280;11554;51.106;3.684;2023-02-15T03:35:00;102670.64;;;-2.44;100.0
22775;BME280;11554;51.106;3.684;2023-02-15T03:40:00;102669.69999999998;;;-2.49;100.0
22775;BME280;11554;51.106;3.684;2023-02-15T03:45:01;102665.83;;;-2.56;100.0
22775;BME280;11554;51.106;3.684;2023-02-15T03:50:00;102669.65;;;-2.47;100.0
22775;BME280;11554;51.106;3.684;2023-02-15T03:55:00;102667.08000000002;;;-2.42;100.0
22775;BME280;11554;51.106;3.684;2023-02-15T04:00:00;102666.91;;;-2.41;100.0
22775;BME280;11554;51.106;3.684;2023-02-15T04:05:00;102663.29000000001;;;-2.14;100.0
22775;BME280;11554;51.106;3.684;2023-02-15T04:10:00;102659.94;;;-2.09;100.0
22775;BME280;11554;51.106;3.684;2023-02-15T04:15:00;102655.31000000001;;;-2.05;100.0
22775;BME280;11554;51.106;3.684;2023-02-15T04:20:00;102650.0;;;-1.95;100.0
22775;BME280;11554;51.106;3.684;2023-02-15T04:25:00;102652.36;;;-1.96;100.0
22775;BME280;11554;51.106;3.684;2023-02-15T04:30:00;102649.1;;;-2.13;100.0
22775;BME280;11554;51.106;3.684;2023-02-15T04:35:00;102648.25;;;-2.14;100.0
22775;BME280;11554;51.106;3.684;2023-02-15T04:40:00;102638.83;;;-1.96;100.0
22775;BME280;11554;51.106;3.684;2023-02-15T04:45:00;102639.22;;;-1.91;100.0
22775;BME280;11554;51.106;3.684;2023-02-15T04:50:00;102631.81999999999;;;-1.48;100.0
22775;BME280;11554;51.106;3.684;2023-02-15T04:55:00;102634.56000000001;;;-1.39;100.0
22775;BME280;11554;51.106;3.684;2023-02-15T05:00:00;102635.94;;;-1.33;100.0
22775;BME280;11554;51.106;3.684;2023-02-15T05:05:00;102632.8;;;-1.68;100.0
22775;BME280;11554;51.106;3.684;2023-02-15T05:10:00;102621.47;;;-1.62;100.0
22775;BME280;11554;51.106;3.684;2023-02-15T05:15:00;102619.81000000001;;;-1.40;100.0
22775;BME280;11554;51.106;3.684;2023-02-15T05:20:00;102608.97;;;-1.38;100.0
22775;BME280;11554;51.106;3.684;2023-02-15T05:25:00;102604.0;;;-1.37;100.0
22775;BME280;11554;51.106;3.684;2023-02-15T05:30:00;102599.37;;;-1.70;100.0
22775;BME280;11554;51.106;3.684;2023-02-15T05:35:00;102597.12999999999;;;-1.78;100.0
22775;BME280;11554;51.106;3.684;2023-02-15T05:40:00;102594.87;;;-1.80;100.0
22775;BME280;11554;51.106;3.684;2023-02-15T05:45:00;102589.39;;;-1.55;100.0
22775;BME280;11554;51.106;3.684;2023-02-15T05:50:00;102588.01000000001;;;-1.23;100.0
22775;BME280;11554;51.106;3.684;2023-02-15T05:55:00;102585.47000000002;;;-1.13;100.0
22775;BME280;11554;51.106;3.684;2023-02-15T06:00:00;102585.71999999999;;;-1.06;100.0
22775;BME280;11554;51.106;3.684;2023-02-15T06:05:00;102575.32;;;-0.94;100.0
22775;BME280;11554;51.106;3.684;2023-02-15T06:10:00;102571.85999999999;;;-1.01;100.0
22775;BME280;11554;51.106;3.684;2023-02-15T06:15:00;102576.43000000001;;;-0.90;100.0
22775;BME280;11554;51.106;3.684;2023-02-15T06:20:00;102575.44;;;-0.82;100.0
22775;BME280;11554;51.106;3.684;2023-02-15T06:25:00;102575.79000000001;;;-1.35;100.0
22775;BME280;11554;51.106;3.684;2023-02-15T06:30:00;102580.44;;;-1.38;100.0
22775;BME280;11554;51.106;3.684;2023-02-15T06:35:00;102583.04000000001;;;-1.32;100.0
22775;BME280;11554;51.106;3.684;2023-02-15T06:40:00;102584.69;;;-1.58;100.0
22775;BME280;11554;51.106;3.684;2023-02-15T06:45:00;102585.33;;;-1.76;100.0
22775;BME280;11554;51.106;3.684;2023-02-15T06:50:00;102585.58;;;-1.64;100.0
22775;BME280;11554;51.106;3.684;2023-02-15T06:55:00;102586.29000000001;;;-1.57;100.0
22775;BME280;11554;51.106;3.684;2023-02-15T07:00:00;102593.69999999998;;;-1.94;100.0
22775;BME280;11554;51.106;3.684;2023-02-15T07:05:00;102585.88;;;-1.72;100.0
22775;BME280;11554;51.106;3.684;2023-02-15T07:10:00;102592.15;;;-1.44;100.0
22775;BME280;11554;51.106;3.684;2023-02-15T07:15:00;102585.97;;;-1.49;100.0
22775;BME280;11554;51.106;3.684;2023-02-15T07:20:00;102579.61;;;-1.17;100.0
22775;BME280;11554;51.106;3.684;2023-02-15T07:25:00;102579.17;;;-0.98;100.0
22775;BME280;11554;51.106;3.684;2023-02-15T07:30:00;102577.31000000001;;;-0.98;100.0
22775;BME280;11554;51.106;3.684;2023-02-15T07:35:00;102572.66;;;-0.69;100.0
22775;BME280;11554;51.106;3.684;2023-02-15T07:40:00;102577.27;;;-0.48;100.0
22775;BME280;11554;51.106;3.684;2023-02-15T07:45:00;102578.69;;;-0.44;100.0
22775;BME280;11554;51.106;3.684;2023-02-15T07:50:00;102590.87;;;-0.05;100.0
22775;BME280;11554;51.106;3.684;2023-02-15T07:55:00;102592.29000000001;;;-0.06;100.0
22775;BME280;11554;51.106;3.684;2023-02-15T08:00:00;102593.93;;;0.11;100.0
22775;BME280;11554;51.106;3.684;2023-02-15T08:05:00;102594.35;;;0.32;100.0
22775;BME280;11554;51.106;3.684;2023-02-15T08:10:00;102585.81999999999;;;0.69;100.0
22775;BME280;11554;51.106;3.684;2023-02-15T08:15:00;102581.7;;;1.03;100.0
22775;BME280;11554;51.106;3.684;2023-02-15T08:20:00;102573.12999999999;;;1.43;100.0
22775;BME280;11554;51.106;3.684;2023-02-15T08:25:00;102561.17;;;1.85;100.0
22775;BME280;11554;51.106;3.684;2023-02-15T08:30:00;102556.18999999999;;;2.11;100.0
22775;BME280;11554;51.106;3.684;2023-02-15T08:35:00;102551.14000000001;;;2.31;100.0
22775;BME280;11554;51.106;3.684;2023-02-15T08:40:00;102548.54000000001;;;2.60;100.0
22775;BME280;11554;51.106;3.684;2023-02-15T08:45:00;102548.36;;;2.99;100.0
22775;BME280;11554;51.106;3.684;2023-02-15T08:50:00;102543.74;;;3.39;100.0
22775;BME280;11554;51.106;3.684;2023-02-15T08:55:00;102547.99;;;3.63;100.0
22775;BME280;11554;51.106;3.684;2023-02-15T09:00:00;102545.5;;;3.87;100.0
22775;BME280;11554;51.106;3.684;2023-02-15T09:05:00;102549.84999999999;;;4.23;100.0
22775;BME280;11554;51.106;3.684;2023-02-15T09:10:00;102553.58000000002;;;4.44;100.0
22775;BME280;11554;51.106;3.684;2023-02-15T09:15:00;102563.66;;;4.75;100.0
22775;BME280;11554;51.106;3.684;2023-02-15T09:20:00;102573.08;;;5.05;100.0
22775;BME280;11554;51.106;3.684;2023-02-15T09:25:00;102576.64;;;5.30;100.0
22775;BME280;11554;51.106;3.684;2023-02-15T09:30:00;102564.62;;;5.56;100.0
22775;BME280;11554;51.106;3.684;2023-02-15T09:35:00;102557.03000000001;;;5.84;100.0
22775;BME280;11554;51.106;3.684;2023-02-15T09:40:00;102564.58;;;6.06;100.0
22775;BME280;11554;51.106;3.684;2023-02-15T09:45:02;102559.58;;;6.23;100.0
22775;BME280;11554;51.106;3.684;2023-02-15T09:50:01;102556.13;;;6.36;100.0
22775;BME280;11554;51.106;3.684;2023-02-15T09:55:11;102556.68000000001;;;6.65;100.0
22775;BME280;11554;51.106;3.684;2023-02-15T10:00:02;102555.79000000001;;;6.94;100.0
22775;BME280;11554;51.106;3.684;2023-02-15T10:05:04;102557.28;;;7.20;100.0
22775;BME280;11554;51.106;3.684;2023-02-15T10:10:03;102557.65;;;7.33;100.0
22775;BME280;11554;51.106;3.684;2023-02-15T10:15:07;102560.77;;;7.62;100.0
22775;BME280;11554;51.106;3.684;2023-02-15T10:20:03;102564.21;;;7.69;100.0
22775;BME280;11554;51.106;3.684;2023-02-15T10:25:04;102576.71;;;7.80;100.0
22775;BME280;11554;51.106;3.684;2023-02-15T10:30:02;102565.24999999999;;;7.80;100.0
22775;BME280;11554;51.106;3.684;2023-02-15T10:35:00;102560.6;;;7.89;100.0
22775;BME280;11554;51.106;3.684;2023-02-15T10:40:01;102559.54999999999;;;8.45;100.0
22775;BME280;11554;51.106;3.684;2023-02-15T10:45:04;102548.13999999998;;;8.78;100.0
22775;BME280;11554;51.106;3.684;2023-02-15T10:50:04;102546.39;;;9.17;100.0
22775;BME280;11554;51.106;3.684;2023-02-15T10:55:02;102535.22;;;9.61;100.0
22775;BME280;11554;51.106;3.684;2023-02-15T11:00:02;102529.33;;;9.80;100.0
22775;BME280;11554;51.106;3.684;2023-02-15T11:05:02;102526.33;;;9.89;
22775;BME280;11554;51.106;3.684;2023-02-15T11:10:01;102531.98999999999;;;9.96;100.0
22775;BME280;11554;51.106;3.684;2023-02-15T11:15:01;102523.65999999999;;;10.00;99.87
22775;BME280;11554;51.106;3.684;2023-02-15T11:20:02;102529.93;;;10.13;96.61
22775;BME280;11554;51.106;3.684;2023-02-15T11:25:00;102530.47999999998;;;10.22;96.92
22775;BME280;11554;51.106;3.684;2023-02-15T11:30:00;102530.7;;;10.82;97.35
22775;BME280;11554;51.106;3.684;2023-02-15T11:35:01;102528.33;;;11.64;98.15
22775;BME280;11554;51.106;3.684;2023-02-15T11:40:00;102521.51;;;11.82;93.04
22775;BME280;11554;51.106;3.684;2023-02-15T11:45:02;102514.4;;;11.57;92.45
22775;BME280;11554;51.106;3.684;2023-02-15T11:50:00;102503.92;;;11.47;93.7
22775;BME280;11554;51.106;3.684;2023-02-15T11:55:00;102495.61000000002;;;11.75;92.54
22775;BME280;11554;51.106;3.684;2023-02-15T12:00:01;102497.75;;;12.03;91.91
22775;BME280;11554;51.106;3.684;2023-02-15T12:05:00;102495.0;;;12.35;88.98
22775;BME280;11554;51.106;3.684;2023-02-15T12:10:02;102485.06;;;12.78;90.33
22775;BME280;11554;51.106;3.684;2023-02-15T12:15:00;102480.14;;;13.09;90.14
22775;BME280;11554;51.106;3.684;2023-02-15T12:20:00;102483.65;;;13.13;86.15
22775;BME280;11554;51.106;3.684;2023-02-15T12:25:00;102486.6;;;13.36;87.16
22775;BME280;11554;51.106;3.684;2023-02-15T12:30:00;102485.41;;;13.73;84.99
22775;BME280;11554;51.106;3.684;2023-02-15T12:35:01;102480.54;;;13.67;84.27
22775;BME280;11554;51.106;3.684;2023-02-15T12:40:00;102479.48;;;13.82;83.34
22775;BME280;11554;51.106;3.684;2023-02-15T12:45:00;102487.49;;;13.71;82.26
22775;BME280;11554;51.106;3.684;2023-02-15T12:50:04;102485.40000000001;;;13.49;84.97
22775;BME280;11554;51.106;3.684;2023-02-15T12:55:10;102488.21;;;13.23;83.14
22775;BME280;11554;51.106;3.684;2023-02-15T13:00:01;102482.18999999999;;;13.15;81.37
22775;BME280;11554;51.106;3.684;2023-02-15T13:05:04;102476.33;;;13.34;83.1
22775;BME280;11554;51.106;3.684;2023-02-15T13:10:00;102475.29;;;13.54;82.2
22775;BME280;11554;51.106;3.684;2023-02-15T13:15:00;102470.85999999999;;;13.69;81.76
22775;BME280;11554;51.106;3.684;2023-02-15T13:20:02;102476.42000000001;;;13.76;81.53
22775;BME280;11554;51.106;3.684;2023-02-15T13:25:01;102464.43999999999;;;13.79;80.5
22775;BME280;11554;51.106;3.684;2023-02-15T13:30:00;102465.77;;;13.67;78.56
22775;BME280;11554;51.106;3.684;2023-02-15T13:35:00;102460.40000000001;;;13.63;79.5
22775;BME280;11554;51.106;3.684;2023-02-15T13:40:01;102458.61;;;13.59;80.68
22775;BME280;11554;51.106;3.684;2023-02-15T13:45:02;102455.0;;;13.68;82.49
22775;BME280;11554;51.106;3.684;2023-02-15T13:50:06;102455.15000000001;;;13.87;78.72
22775;BME280;11554;51.106;3.684;2023-02-15T13:55:08;102442.74;;;13.84;80.44
22775;BME280;11554;51.106;3.684;2023-02-15T14:00:02;102437.98999999999;;;13.61;80.08
22775;BME280;11554;51.106;3.684;2023-02-15T14:05:05;102430.81999999999;;;13.57;82.04
22775;BME280;11554;51.106;3.684;2023-02-15T14:10:02;102430.58000000002;;;13.69;80.88
22775;BME280;11554;51.106;3.684;2023-02-15T14:15:03;102426.88;;;13.38;79.08
22775;BME280;11554;51.106;3.684;2023-02-15T14:20:01;102426.38999999998;;;13.25;80.16
22775;BME280;11554;51.106;3.684;2023-02-15T14:25:04;102420.74;;;13.02;79.89
22775;BME280;11554;51.106;3.684;2023-02-15T14:30:00;102417.82;;;13.16;81.23
22775;BME280;11554;51.106;3.684;2023-02-15T14:35:00;102420.67;;;13.12;80.06
22775;BME280;11554;51.106;3.684;2023-02-15T14:40:00;102427.70000000001;;;12.83;82.4
22775;BME280;11554;51.106;3.684;2023-02-15T14:45:01;102430.56999999999;;;12.59;81.26
22775;BME280;11554;51.106;3.684;2023-02-15T14:50:00;102431.46999999999;;;12.50;83.66
22775;BME280;11554;51.106;3.684;2023-02-15T14:55:00;102431.62999999999;;;12.44;83.34
22775;BME280;11554;51.106;3.684;2023-02-15T15:00:01;102436.28000000001;;;12.16;82.9
22775;BME280;11554;51.106;3.684;2023-02-15T15:05:01;102432.43;;;12.08;84.8
22775;BME280;11554;51.106;3.684;2023-02-15T15:10:00;102431.79000000001;;;11.86;84.7
22775;BME280;11554;51.106;3.684;2023-02-15T15:15:00;102430.68000000001;;;11.65;85.55
22775;BME280;11554;51.106;3.684;2023-02-15T15:20:00;102431.97;;;11.53;86.54
22775;BME280;11554;51.106;3.684;2023-02-15T15:25:00;102422.04999999999;;;11.33;87.3
22775;BME280;11554;51.106;3.684;2023-02-15T15:30:00;102410.77;;;11.15;87.33
22775;BME280;11554;51.106;3.684;2023-02-15T15:35:04;102412.38;;;11.02;88.49
22775;BME280;11554;51.106;3.684;2023-02-15T15:45:03;102412.79;;;10.79;88.88
22775;BME280;11554;51.106;3.684;2023-02-15T15:50:00;102408.23000000001;;;10.69;90.09
22775;BME280;11554;51.106;3.684;2023-02-15T15:55:02;102409.53;;;10.66;90.9
22775;BME280;11554;51.106;3.684;2023-02-15T16:00:00;102397.27;;;10.46;90.61
22775;BME280;11554;51.106;3.684;2023-02-15T16:05:05;102392.52;;;10.27;91.51
22775;BME280;11554;51.106;3.684;2023-02-15T16:10:01;102380.82;;;10.08;91.46
22775;BME280;11554;51.106;3.684;2023-02-15T16:15:00;102385.47;;;9.95;92.07
22775;BME280;11554;51.106;3.684;2023-02-15T16:20:01;102375.78;;;9.78;92.53
22775;BME280;11554;51.106;3.684;2023-02-15T16:25:04;102376.95;;;9.65;93.24
22775;BME280;11554;51.106;3.684;2023-02-15T16:35:00;102379.89;;;9.44;94.48
22775;BME280;11554;51.106;3.684;2023-02-15T16:40:00;102380.59;;;9.36;94.79
22775;BME280;11554;51.106;3.684;2023-02-15T16:45:01;102391.28;;;9.25;95.3
22775;BME280;11554;51.106;3.684;2023-02-15T16:50:01;102396.14;;;9.12;95.78
22775;BME280;11554;51.106;3.684;2023-02-15T16:55:01;102392.89;;;8.99;96.27
22775;BME280;11554;51.106;3.684;2023-02-15T17:00:01;102390.8;;;8.84;96.67
22775;BME280;11554;51.106;3.684;2023-02-15T17:05:02;102385.02;;;8.68;97.18
22775;BME280;11554;51.106;3.684;2023-02-15T17:10:00;102387.13;;;8.48;97.22
22775;BME280;11554;51.106;3.684;2023-02-15T17:15:00;102385.05;;;8.26;97.73
22775;BME280;11554;51.106;3.684;2023-02-15T17:20:00;102381.23000000001;;;8.06;98.46
22775;BME280;11554;51.106;3.684;2023-02-15T17:25:01;102381.62;;;7.94;99.25
22775;BME280;11554;51.106;3.684;2023-02-15T17:30:00;102391.69;;;7.75;99.3
22775;BME280;11554;51.106;3.684;2023-02-15T17:35:05;102398.99;;;7.60;99.74
22775;BME280;11554;51.106;3.684;2023-02-15T17:40:00;102405.10999999999;;;7.45;100.0
22775;BME280;11554;51.106;3.684;2023-02-15T17:45:00;102410.45;;;7.30;100.0
22775;BME280;11554;51.106;3.684;2023-02-15T17:50:00;102422.29999999999;;;7.22;100.0
22775;BME280;11554;51.106;3.684;2023-02-15T17:55:00;102417.18000000001;;;7.14;100.0
22775;BME280;11554;51.106;3.684;2023-02-15T18:00:00;102408.57;;;7.07;100.0
22775;BME280;11554;51.106;3.684;2023-02-15T18:05:00;102415.20000000001;;;6.92;100.0
22775;BME280;11554;51.106;3.684;2023-02-15T18:10:00;102423.19;;;6.82;100.0
22775;BME280;11554;51.106;3.684;2023-02-15T18:15:00;102420.15;;;6.63;100.0
22775;BME280;11554;51.106;3.684;2023-02-15T18:20:00;102418.99;;;6.45;100.0
22775;BME280;11554;51.106;3.684;2023-02-15T18:25:00;102425.89;;;6.47;100.0
22775;BME280;11554;51.106;3.684;2023-02-15T18:30:00;102425.50000000001;;;6.36;100.0
22775;BME280;11554;51.106;3.684;2023-02-15T18:35:00;102433.8;;;6.26;100.0
22775;BME280;11554;51.106;3.684;2023-02-15T18:40:00;102429.93;;;6.16;100.0
22775;BME280;11554;51.106;3.684;2023-02-15T18:45:01;102430.58000000002;;;6.07;100.0
22775;BME280;11554;51.106;3.684;2023-02-15T18:50:00;102430.98;;;6.07;100.0
22775;BME280;11554;51.106;3.684;2023-02-15T18:55:01;102446.67;;;6.04;100.0
22775;BME280;11554;51.106;3.684;2023-02-15T19:00:00;102448.36;;;5.93;100.0
22775;BME280;11554;51.106;3.684;2023-02-15T19:05:00;102444.46;;;5.85;100.0
22775;BME280;11554;51.106;3.684;2023-02-15T19:10:00;102437.87;;;5.82;100.0
22775;BME280;11554;51.106;3.684;2023-02-15T19:20:00;102449.01;;;5.78;100.0
22775;BME280;11554;51.106;3.684;2023-02-15T19:25:00;102447.06000000001;;;5.70;100.0
22775;BME280;11554;51.106;3.684;2023-02-15T19:30:00;102447.83;;;5.70;100.0
22775;BME280;11554;51.106;3.684;2023-02-15T19:35:00;102439.84;;;5.58;100.0
22775;BME280;11554;51.106;3.684;2023-02-15T19:40:00;102441.3;;;5.43;100.0
22775;BME280;11554;51.106;3.684;2023-02-15T19:45:00;102432.73999999999;;;5.32;100.0
22775;BME280;11554;51.106;3.684;2023-02-15T19:50:00;102430.40000000001;;;5.29;100.0
22775;BME280;11554;51.106;3.684;2023-02-15T19:55:00;102429.98;;;5.32;100.0
22775;BME280;11554;51.106;3.684;2023-02-15T20:00:00;102431.36;;;5.28;100.0
22775;BME280;11554;51.106;3.684;2023-02-15T20:05:00;102439.27;;;5.27;100.0
22775;BME280;11554;51.106;3.684;2023-02-15T20:10:00;102426.75;;;5.24;100.0
22775;BME280;11554;51.106;3.684;2023-02-15T20:15:00;102429.9;;;5.12;100.0
22775;BME280;11554;51.106;3.684;2023-02-15T20:20:00;102435.71999999999;;;5.09;100.0
22775;BME280;11554;51.106;3.684;2023-02-15T20:25:00;102438.38;;;5.03;100.0
22775;BME280;11554;51.106;3.684;2023-02-15T20:30:00;102440.59;;;4.97;100.0
22775;BME280;11554;51.106;3.684;2023-02-15T20:35:00;102435.9;;;4.92;100.0
22775;BME280;11554;51.106;3.684;2023-02-15T20:40:00;102438.27000000002;;;4.85;100.0
22775;BME280;11554;51.106;3.684;2023-02-15T20:45:00;102428.04000000001;;;4.84;100.0
22775;BME280;11554;51.106;3.684;2023-02-15T20:50:00;102433.78;;;4.80;100.0
22775;BME280;11554;51.106;3.684;2023-02-15T20:55:00;102433.72;;;4.78;100.0
22775;BME280;11554;51.106;3.684;2023-02-15T21:00:00;102424.11;;;4.77;100.0
22775;BME280;11554;51.106;3.684;2023-02-15T21:05:00;102424.84999999999;;;4.73;100.0
22775;BME280;11554;51.106;3.684;2023-02-15T21:10:00;102424.39;;;4.72;100.0
22775;BME280;11554;51.106;3.684;2023-02-15T21:15:00;102425.66999999998;;;4.77;100.0
22775;BME280;11554;51.106;3.684;2023-02-15T21:20:00;102423.34000000001;;;4.73;100.0
22775;BME280;11554;51.106;3.684;2023-02-15T21:25:00;102420.39;;;4.71;100.0
22775;BME280;11554;51.106;3.684;2023-02-15T21:30:00;102410.9;;;4.71;100.0
22775;BME280;11554;51.106;3.684;2023-02-15T21:35:00;102410.27999999998;;;4.66;100.0
22775;BME280;11554;51.106;3.684;2023-02-15T21:40:00;102414.14;;;4.71;100.0
22775;BME280;11554;51.106;3.684;2023-02-15T21:45:00;102427.37999999999;;;4.70;100.0
22775;BME280;11554;51.106;3.684;2023-02-15T21:50:00;102429.58000000002;;;4.66;100.0
22775;BME280;11554;51.106;3.684;2023-02-15T21:55:00;102425.20999999999;;;4.63;100.0
22775;BME280;11554;51.106;3.684;2023-02-15T22:00:00;102423.85999999999;;;4.49;100.0
22775;BME280;11554;51.106;3.684;2023-02-15T22:05:00;102410.68000000001;;;4.35;100.0
22775;BME280;11554;51.106;3.684;2023-02-15T22:10:00;102412.11;;;4.24;100.0
22775;BME280;11554;51.106;3.684;2023-02-15T22:15:00;102414.14;;;4.25;100.0
22775;BME280;11554;51.106;3.684;2023-02-15T22:20:00;102411.87999999999;;;4.19;100.0
22775;BME280;11554;51.106;3.684;2023-02-15T22:25:00;102418.74;;;4.02;100.0
22775;BME280;11554;51.106;3.684;2023-02-15T22:30:00;102428.96;;;3.97;100.0
22775;BME280;11554;51.106;3.684;2023-02-15T22:35:00;102426.99;;;3.93;100.0
22775;BME280;11554;51.106;3.684;2023-02-15T22:40:00;102434.17;;;3.80;100.0
22775;BME280;11554;51.106;3.684;2023-02-15T22:45:00;102430.21;;;3.75;100.0
22775;BME280;11554;51.106;3.684;2023-02-15T22:50:00;102431.58;;;3.67;100.0
22775;BME280;11554;51.106;3.684;2023-02-15T22:55:00;102433.87;;;3.59;100.0
22775;BME280;11554;51.106;3.684;2023-02-15T23:00:00;102434.05;;;3.50;100.0
22775;BME280;11554;51.106;3.684;2023-02-15T23:05:00;102427.20999999999;;;3.41;100.0
22775;BME280;11554;51.106;3.684;2023-02-15T23:10:00;102425.77000000002;;;3.28;100.0
22775;BME280;11554;51.106;3.684;2023-02-15T23:15:00;102428.38999999998;;;3.22;100.0
22775;BME280;11554;51.106;3.684;2023-02-15T23:20:00;102424.93;;;3.21;100.0
22775;BME280;11554;51.106;3.684;2023-02-15T23:25:00;102427.56;;;3.13;100.0
22775;BME280;11554;51.106;3.684;2023-02-15T23:30:01;102427.47;;;3.08;100.0
22775;BME280;11554;51.106;3.684;2023-02-15T23:35:00;102424.37;;;3.07;100.0
22775;BME280;11554;51.106;3.684;2023-02-15T23:40:00;102422.13999999998;;;3.08;100.0
22775;BME280;11554;51.106;3.684;2023-02-15T23:45:00;102424.76;;;3.02;100.0
22775;BME280;11554;51.106;3.684;2023-02-15T23:50:00;102417.14;;;2.98;100.0
22775;BME280;11554;51.106;3.684;2023-02-15T23:55:00;102415.01000000001;;;2.97;100.0
